sensor_id;sensor_type;location;lat;lon;timestamp;pressure;altitude;pressure_sealevel;temperature;humidity
25498;BME280;13406;53.380;7.226;2023-11-18T00:01:05;103689.31;;;3.43;100.00
25498;BME280;13406;53.380;7.226;2023-11-18T00:03:31;103701.56;;;3.45;100.00
25498;BME280;13406;53.380;7.226;2023-11-18T00:05:56;103661.25;;;3.38;100.00
25498;BME280;13406;53.380;7.226;2023-11-18T00:08:22;103678.13;;;3.69;100.00
25498;BME280;13406;53.380;7.226;2023-11-18T00:10:47;103696.59;;;3.39;100.00
25498;BME280;13406;53.380;7.226;2023-11-18T00:13:12;103676.84;;;2.77;100.00
25498;BME280;13406;53.380;7.226;2023-11-18T00:15:38;103709.75;;;3.40;100.00
25498;BME280;13406;53.380;7.226;2023-11-18T00:18:04;103638.66;;;2.46;100.00
25498;BME280;13406;53.380;7.226;2023-11-18T00:20:29;103727.69;;;2.85;100.00
25498;BME280;13406;53.380;7.226;2023-11-18T00:22:56;103699.00;;;2.93;100.00
25498;BME280;13406;53.380;7.226;2023-11-18T00:25:22;103524.28;;;2.03;100.00
25498;BME280;13406;53.380;7.226;2023-11-18T00:27:47;103723.75;;;2.75;100.00
25498;BME280;13406;53.380;7.226;2023-11-18T00:30:13;103644.78;;;2.12;100.00
25498;BME280;13406;53.380;7.226;2023-11-18T00:32:39;103679.78;;;2.36;100.00
25498;BME280;13406;53.380;7.226;2023-11-18T00:35:05;103696.03;;;2.64;100.00
25498;BME280;13406;53.380;7.226;2023-11-18T00:37:31;103735.56;;;2.14;100.00
25498;BME280;13406;53.380;7.226;2023-11-18T00:39:57;103727.28;;;2.58;100.00
25498;BME280;13406;53.380;7.226;2023-11-18T00:42:22;103726.72;;;2.15;100.00
25498;BME280;13406;53.380;7.226;2023-11-18T00:44:47;103599.63;;;1.22;100.00
25498;BME280;13406;53.380;7.226;2023-11-18T00:47:13;103703.16;;;2.09;100.00
25498;BME280;13406;53.380;7.226;2023-11-18T00:49:38;103712.91;;;2.44;100.00
25498;BME280;13406;53.380;7.226;2023-11-18T00:52:05;103720.41;;;1.79;100.00
25498;BME280;13406;53.380;7.226;2023-11-18T00:54:30;103700.16;;;1.60;100.00
25498;BME280;13406;53.380;7.226;2023-11-18T00:56:56;103576.22;;;0.94;100.00
25498;BME280;13406;53.380;7.226;2023-11-18T00:59:21;103728.13;;;2.22;100.00
25498;BME280;13406;53.380;7.226;2023-11-18T01:01:47;103729.41;;;2.13;100.00
25498;BME280;13406;53.380;7.226;2023-11-18T01:04:14;103738.94;;;1.98;100.00
25498;BME280;13406;53.380;7.226;2023-11-18T01:06:39;103736.16;;;2.20;100.00
25498;BME280;13406;53.380;7.226;2023-11-18T01:09:05;103657.97;;;1.56;100.00
25498;BME280;13406;53.380;7.226;2023-11-18T01:11:32;103492.84;;;0.67;100.00
25498;BME280;13406;53.380;7.226;2023-11-18T01:13:58;103716.56;;;2.06;100.00
25498;BME280;13406;53.380;7.226;2023-11-18T01:16:23;103671.25;;;1.93;100.00
25498;BME280;13406;53.380;7.226;2023-11-18T01:18:49;103698.59;;;1.93;100.00
25498;BME280;13406;53.380;7.226;2023-11-18T01:21:14;103716.13;;;1.77;100.00
25498;BME280;13406;53.380;7.226;2023-11-18T01:23:42;103728.22;;;2.20;100.00
25498;BME280;13406;53.380;7.226;2023-11-18T01:26:10;103736.34;;;2.16;100.00
25498;BME280;13406;53.380;7.226;2023-11-18T01:28:38;103694.22;;;1.54;100.00
25498;BME280;13406;53.380;7.226;2023-11-18T01:31:06;103653.16;;;1.46;100.00
25498;BME280;13406;53.380;7.226;2023-11-18T01:33:41;103715.47;;;2.10;100.00
25498;BME280;13406;53.380;7.226;2023-11-18T01:36:08;103692.81;;;2.40;100.00
25498;BME280;13406;53.380;7.226;2023-11-18T01:38:34;103709.03;;;2.69;100.00
25498;BME280;13406;53.380;7.226;2023-11-18T01:41:00;103663.41;;;2.45;100.00
25498;BME280;13406;53.380;7.226;2023-11-18T01:43:26;103744.22;;;2.72;100.00
25498;BME280;13406;53.380;7.226;2023-11-18T01:45:51;103631.22;;;2.18;100.00
25498;BME280;13406;53.380;7.226;2023-11-18T01:48:19;103754.94;;;2.33;100.00
25498;BME280;13406;53.380;7.226;2023-11-18T01:50:45;103743.88;;;2.61;100.00
25498;BME280;13406;53.380;7.226;2023-11-18T01:53:12;103705.47;;;2.87;100.00
25498;BME280;13406;53.380;7.226;2023-11-18T01:55:39;103686.69;;;2.02;100.00
25498;BME280;13406;53.380;7.226;2023-11-18T01:58:05;103664.41;;;1.70;100.00
25498;BME280;13406;53.380;7.226;2023-11-18T02:00:36;103725.72;;;2.71;100.00
25498;BME280;13406;53.380;7.226;2023-11-18T02:03:05;103687.41;;;2.42;100.00
25498;BME280;13406;53.380;7.226;2023-11-18T02:05:31;103712.25;;;2.76;100.00
25498;BME280;13406;53.380;7.226;2023-11-18T02:07:59;103725.56;;;2.20;100.00
25498;BME280;13406;53.380;7.226;2023-11-18T02:10:26;103712.13;;;2.06;100.00
25498;BME280;13406;53.380;7.226;2023-11-18T02:13:07;103700.19;;;2.34;100.00
25498;BME280;13406;53.380;7.226;2023-11-18T02:15:38;103699.06;;;2.74;100.00
25498;BME280;13406;53.380;7.226;2023-11-18T02:18:06;103669.16;;;2.72;100.00
25498;BME280;13406;53.380;7.226;2023-11-18T02:20:35;103652.53;;;2.68;100.00
25498;BME280;13406;53.380;7.226;2023-11-18T02:23:01;103671.78;;;2.37;100.00
25498;BME280;13406;53.380;7.226;2023-11-18T02:25:29;103655.69;;;2.23;100.00
25498;BME280;13406;53.380;7.226;2023-11-18T02:27:55;103665.59;;;2.37;100.00
25498;BME280;13406;53.380;7.226;2023-11-18T02:30:21;103674.97;;;2.96;100.00
25498;BME280;13406;53.380;7.226;2023-11-18T02:32:55;103630.78;;;2.44;100.00
25498;BME280;13406;53.380;7.226;2023-11-18T02:35:28;103684.56;;;2.99;100.00
25498;BME280;13406;53.380;7.226;2023-11-18T02:37:55;103662.81;;;2.57;100.00
25498;BME280;13406;53.380;7.226;2023-11-18T02:40:29;103663.59;;;2.59;100.00
25498;BME280;13406;53.380;7.226;2023-11-18T02:42:58;103657.47;;;2.22;100.00
25498;BME280;13406;53.380;7.226;2023-11-18T02:45:25;103595.00;;;1.82;100.00
25498;BME280;13406;53.380;7.226;2023-11-18T02:47:52;103644.63;;;2.15;100.00
25498;BME280;13406;53.380;7.226;2023-11-18T02:50:25;103690.38;;;2.36;100.00
25498;BME280;13406;53.380;7.226;2023-11-18T02:52:50;103640.59;;;2.42;100.00
25498;BME280;13406;53.380;7.226;2023-11-18T02:55:16;103585.28;;;2.36;100.00
25498;BME280;13406;53.380;7.226;2023-11-18T02:57:41;103689.72;;;2.84;100.00
25498;BME280;13406;53.380;7.226;2023-11-18T03:00:07;103669.41;;;2.48;100.00
25498;BME280;13406;53.380;7.226;2023-11-18T03:02:48;103678.84;;;2.89;100.00
25498;BME280;13406;53.380;7.226;2023-11-18T03:05:14;103677.38;;;2.66;100.00
25498;BME280;13406;53.380;7.226;2023-11-18T03:07:46;103635.38;;;2.23;100.00
25498;BME280;13406;53.380;7.226;2023-11-18T03:10:16;103677.78;;;2.76;100.00
25498;BME280;13406;53.380;7.226;2023-11-18T03:12:47;103668.81;;;2.61;100.00
25498;BME280;13406;53.380;7.226;2023-11-18T03:15:12;103669.84;;;2.76;100.00
25498;BME280;13406;53.380;7.226;2023-11-18T03:17:38;103473.81;;;1.89;100.00
25498;BME280;13406;53.380;7.226;2023-11-18T03:20:04;103657.59;;;2.90;100.00
25498;BME280;13406;53.380;7.226;2023-11-18T03:22:34;103606.88;;;2.29;100.00
25498;BME280;13406;53.380;7.226;2023-11-18T03:24:59;103648.63;;;2.76;100.00
25498;BME280;13406;53.380;7.226;2023-11-18T03:27:25;103518.69;;;2.26;100.00
25498;BME280;13406;53.380;7.226;2023-11-18T03:29:50;103557.94;;;2.18;100.00
25498;BME280;13406;53.380;7.226;2023-11-18T03:32:16;103472.66;;;2.12;100.00
25498;BME280;13406;53.380;7.226;2023-11-18T03:34:41;103567.31;;;2.76;100.00
25498;BME280;13406;53.380;7.226;2023-11-18T03:37:07;103236.31;;;0.55;100.00
25498;BME280;13406;53.380;7.226;2023-11-18T03:39:32;103336.22;;;0.47;100.00
25498;BME280;13406;53.380;7.226;2023-11-18T03:41:57;103308.81;;;0.85;100.00
25498;BME280;13406;53.380;7.226;2023-11-18T03:44:23;103441.72;;;1.43;100.00
25498;BME280;13406;53.380;7.226;2023-11-18T03:46:51;103066.47;;;-0.72;100.00
25498;BME280;13406;53.380;7.226;2023-11-18T03:49:17;103215.81;;;0.42;100.00
25498;BME280;13406;53.380;7.226;2023-11-18T03:51:42;103227.03;;;0.65;100.00
25498;BME280;13406;53.380;7.226;2023-11-18T03:54:08;103389.91;;;1.56;100.00
25498;BME280;13406;53.380;7.226;2023-11-18T03:56:34;103145.84;;;-0.21;100.00
25498;BME280;13406;53.380;7.226;2023-11-18T03:58:59;103313.03;;;1.42;100.00
25498;BME280;13406;53.380;7.226;2023-11-18T04:01:26;103358.94;;;1.41;100.00
25498;BME280;13406;53.380;7.226;2023-11-18T04:03:54;103448.91;;;2.10;100.00
25498;BME280;13406;53.380;7.226;2023-11-18T04:06:21;103171.19;;;0.55;100.00
25498;BME280;13406;53.380;7.226;2023-11-18T04:08:47;103243.59;;;0.68;100.00
25498;BME280;13406;53.380;7.226;2023-11-18T04:11:14;103250.53;;;0.88;100.00
25498;BME280;13406;53.380;7.226;2023-11-18T04:13:42;103214.16;;;0.94;100.00
25498;BME280;13406;53.380;7.226;2023-11-18T04:16:15;103222.56;;;0.84;100.00
25498;BME280;13406;53.380;7.226;2023-11-18T04:18:42;103586.09;;;2.71;100.00
25498;BME280;13406;53.380;7.226;2023-11-18T04:21:08;103261.09;;;1.06;100.00
25498;BME280;13406;53.380;7.226;2023-11-18T04:23:41;103358.31;;;1.53;100.00
25498;BME280;13406;53.380;7.226;2023-11-18T04:26:07;103062.06;;;-0.16;100.00
25498;BME280;13406;53.380;7.226;2023-11-18T04:28:36;103580.25;;;2.82;100.00
25498;BME280;13406;53.380;7.226;2023-11-18T04:31:02;103173.47;;;0.27;100.00
25498;BME280;13406;53.380;7.226;2023-11-18T04:33:28;103373.56;;;2.16;100.00
25498;BME280;13406;53.380;7.226;2023-11-18T04:35:54;103340.78;;;1.85;100.00
25498;BME280;13406;53.380;7.226;2023-11-18T04:38:22;103249.28;;;1.48;100.00
25498;BME280;13406;53.380;7.226;2023-11-18T04:40:48;103246.81;;;1.61;100.00
25498;BME280;13406;53.380;7.226;2023-11-18T04:43:13;103270.50;;;1.29;100.00
25498;BME280;13406;53.380;7.226;2023-11-18T04:45:40;103226.03;;;1.37;100.00
25498;BME280;13406;53.380;7.226;2023-11-18T04:48:07;103365.13;;;2.09;100.00
25498;BME280;13406;53.380;7.226;2023-11-18T04:50:33;103265.75;;;1.35;100.00
25498;BME280;13406;53.380;7.226;2023-11-18T04:52:59;103133.97;;;0.60;100.00
25498;BME280;13406;53.380;7.226;2023-11-18T04:55:24;103063.97;;;0.51;100.00
25498;BME280;13406;53.380;7.226;2023-11-18T04:57:53;103310.84;;;1.67;100.00
25498;BME280;13406;53.380;7.226;2023-11-18T05:00:18;103199.78;;;0.99;100.00
25498;BME280;13406;53.380;7.226;2023-11-18T05:02:45;103475.25;;;2.96;100.00
25498;BME280;13406;53.380;7.226;2023-11-18T05:05:15;103201.97;;;0.91;100.00
25498;BME280;13406;53.380;7.226;2023-11-18T05:07:41;103114.28;;;0.83;100.00
25498;BME280;13406;53.380;7.226;2023-11-18T05:10:07;103205.72;;;1.71;100.00
25498;BME280;13406;53.380;7.226;2023-11-18T05:12:34;103183.13;;;0.97;100.00
25498;BME280;13406;53.380;7.226;2023-11-18T05:15:00;103111.44;;;0.70;100.00
25498;BME280;13406;53.380;7.226;2023-11-18T05:17:26;103326.53;;;2.37;100.00
25498;BME280;13406;53.380;7.226;2023-11-18T05:19:52;103027.25;;;0.47;100.00
25498;BME280;13406;53.380;7.226;2023-11-18T05:22:19;103115.25;;;1.15;100.00
25498;BME280;13406;53.380;7.226;2023-11-18T05:24:46;103117.88;;;1.15;100.00
25498;BME280;13406;53.380;7.226;2023-11-18T05:27:11;103277.97;;;2.04;100.00
25498;BME280;13406;53.380;7.226;2023-11-18T05:29:36;103297.38;;;2.05;100.00
25498;BME280;13406;53.380;7.226;2023-11-18T05:32:02;103238.44;;;2.01;100.00
25498;BME280;13406;53.380;7.226;2023-11-18T05:34:28;103251.78;;;2.00;100.00
25498;BME280;13406;53.380;7.226;2023-11-18T05:36:54;103224.50;;;1.82;100.00
25498;BME280;13406;53.380;7.226;2023-11-18T05:39:20;103253.81;;;2.11;100.00
25498;BME280;13406;53.380;7.226;2023-11-18T05:41:49;103219.25;;;2.30;100.00
25498;BME280;13406;53.380;7.226;2023-11-18T05:44:15;103050.69;;;1.03;100.00
25498;BME280;13406;53.380;7.226;2023-11-18T05:46:47;103153.38;;;1.27;100.00
25498;BME280;13406;53.380;7.226;2023-11-18T05:49:13;103230.22;;;1.90;100.00
25498;BME280;13406;53.380;7.226;2023-11-18T05:51:39;103142.22;;;1.22;100.00
25498;BME280;13406;53.380;7.226;2023-11-18T05:54:08;103184.16;;;1.94;100.00
25498;BME280;13406;53.380;7.226;2023-11-18T05:56:34;103203.09;;;1.87;100.00
25498;BME280;13406;53.380;7.226;2023-11-18T05:59:00;103184.69;;;1.68;100.00
25498;BME280;13406;53.380;7.226;2023-11-18T06:01:29;103194.44;;;1.67;100.00
25498;BME280;13406;53.380;7.226;2023-11-18T06:03:54;103221.22;;;1.61;100.00
25498;BME280;13406;53.380;7.226;2023-11-18T06:06:22;103288.44;;;2.39;100.00
25498;BME280;13406;53.380;7.226;2023-11-18T06:08:48;103255.78;;;2.39;100.00
25498;BME280;13406;53.380;7.226;2023-11-18T06:11:15;103316.09;;;2.34;100.00
25498;BME280;13406;53.380;7.226;2023-11-18T06:13:48;103260.94;;;2.26;100.00
25498;BME280;13406;53.380;7.226;2023-11-18T06:18:46;103150.34;;;1.34;100.00
25498;BME280;13406;53.380;7.226;2023-11-18T06:21:22;103200.19;;;1.91;100.00
25498;BME280;13406;53.380;7.226;2023-11-18T06:23:50;103180.16;;;1.54;100.00
25498;BME280;13406;53.380;7.226;2023-11-18T06:26:16;103153.34;;;1.44;100.00
25498;BME280;13406;53.380;7.226;2023-11-18T06:28:45;103147.44;;;1.06;100.00
25498;BME280;13406;53.380;7.226;2023-11-18T06:31:11;102969.44;;;0.58;100.00
25498;BME280;13406;53.380;7.226;2023-11-18T06:33:44;103095.34;;;1.57;100.00
25498;BME280;13406;53.380;7.226;2023-11-18T06:38:38;103289.09;;;2.43;100.00
25498;BME280;13406;53.380;7.226;2023-11-18T06:41:05;103353.63;;;3.05;100.00
25498;BME280;13406;53.380;7.226;2023-11-18T06:43:35;103103.25;;;1.41;100.00
25498;BME280;13406;53.380;7.226;2023-11-18T06:46:17;103185.91;;;1.94;100.00
25498;BME280;13406;53.380;7.226;2023-11-18T06:48:46;103294.16;;;2.47;100.00
25498;BME280;13406;53.380;7.226;2023-11-18T06:51:11;103337.06;;;2.70;100.00
25498;BME280;13406;53.380;7.226;2023-11-18T06:53:37;103092.06;;;1.20;100.00
25498;BME280;13406;53.380;7.226;2023-11-18T06:56:02;103057.78;;;1.34;100.00
25498;BME280;13406;53.380;7.226;2023-11-18T06:58:28;103005.13;;;0.98;100.00
25498;BME280;13406;53.380;7.226;2023-11-18T07:00:53;103217.09;;;2.36;100.00
25498;BME280;13406;53.380;7.226;2023-11-18T07:03:19;103033.38;;;1.61;100.00
25498;BME280;13406;53.380;7.226;2023-11-18T07:05:44;103047.13;;;1.52;100.00
25498;BME280;13406;53.380;7.226;2023-11-18T07:08:10;103063.94;;;1.67;100.00
25498;BME280;13406;53.380;7.226;2023-11-18T07:10:38;103141.28;;;2.03;100.00
25498;BME280;13406;53.380;7.226;2023-11-18T07:13:03;102989.66;;;1.08;100.00
25498;BME280;13406;53.380;7.226;2023-11-18T07:15:29;102963.72;;;1.15;100.00
25498;BME280;13406;53.380;7.226;2023-11-18T07:17:54;103149.81;;;1.93;100.00
25498;BME280;13406;53.380;7.226;2023-11-18T07:20:19;103228.34;;;2.56;100.00
25498;BME280;13406;53.380;7.226;2023-11-18T07:22:45;103235.56;;;2.84;100.00
25498;BME280;13406;53.380;7.226;2023-11-18T07:25:10;103092.56;;;2.22;100.00
25498;BME280;13406;53.380;7.226;2023-11-18T07:27:36;103049.63;;;1.71;100.00
25498;BME280;13406;53.380;7.226;2023-11-18T07:30:01;103199.91;;;2.89;100.00
25498;BME280;13406;53.380;7.226;2023-11-18T07:32:28;103101.13;;;2.11;100.00
25498;BME280;13406;53.380;7.226;2023-11-18T07:34:53;103042.72;;;1.68;100.00
25498;BME280;13406;53.380;7.226;2023-11-18T07:37:21;103160.38;;;2.24;100.00
25498;BME280;13406;53.380;7.226;2023-11-18T07:39:46;103238.34;;;2.66;100.00
25498;BME280;13406;53.380;7.226;2023-11-18T07:42:14;103239.72;;;2.58;100.00
25498;BME280;13406;53.380;7.226;2023-11-18T07:44:40;103185.53;;;2.63;100.00
25498;BME280;13406;53.380;7.226;2023-11-18T07:47:06;103130.53;;;2.37;100.00
25498;BME280;13406;53.380;7.226;2023-11-18T07:49:33;103085.41;;;2.08;100.00
25498;BME280;13406;53.380;7.226;2023-11-18T07:51:59;103008.97;;;1.56;100.00
25498;BME280;13406;53.380;7.226;2023-11-18T07:54:24;103125.88;;;2.26;100.00
25498;BME280;13406;53.380;7.226;2023-11-18T07:56:50;103025.03;;;1.53;100.00
25498;BME280;13406;53.380;7.226;2023-11-18T07:59:16;103094.59;;;2.17;100.00
25498;BME280;13406;53.380;7.226;2023-11-18T08:01:43;103199.56;;;2.80;100.00
25498;BME280;13406;53.380;7.226;2023-11-18T08:04:12;103099.25;;;2.43;100.00
25498;BME280;13406;53.380;7.226;2023-11-18T08:06:42;103197.31;;;2.88;100.00
25498;BME280;13406;53.380;7.226;2023-11-18T08:09:09;102945.97;;;1.48;100.00
25498;BME280;13406;53.380;7.226;2023-11-18T08:14:17;103239.34;;;3.10;100.00
25498;BME280;13406;53.380;7.226;2023-11-18T08:16:42;103364.31;;;4.08;100.00
25498;BME280;13406;53.380;7.226;2023-11-18T08:19:07;103295.50;;;3.61;100.00
25498;BME280;13406;53.380;7.226;2023-11-18T08:21:34;103304.25;;;4.20;100.00
25498;BME280;13406;53.380;7.226;2023-11-18T08:23:59;103230.09;;;4.03;100.00
25498;BME280;13406;53.380;7.226;2023-11-18T08:26:25;103123.97;;;3.31;100.00
25498;BME280;13406;53.380;7.226;2023-11-18T08:28:51;103146.47;;;3.81;100.00
25498;BME280;13406;53.380;7.226;2023-11-18T08:31:17;103172.59;;;4.02;100.00
25498;BME280;13406;53.380;7.226;2023-11-18T08:33:42;103064.31;;;3.66;100.00
25498;BME280;13406;53.380;7.226;2023-11-18T08:36:08;103140.06;;;3.98;100.00
25498;BME280;13406;53.380;7.226;2023-11-18T08:38:34;103133.28;;;3.94;100.00
25498;BME280;13406;53.380;7.226;2023-11-18T08:41:01;103094.31;;;3.80;100.00
25498;BME280;13406;53.380;7.226;2023-11-18T08:43:26;103111.63;;;4.00;100.00
25498;BME280;13406;53.380;7.226;2023-11-18T08:45:54;103060.59;;;3.82;100.00
25498;BME280;13406;53.380;7.226;2023-11-18T08:48:20;103119.03;;;3.95;100.00
25498;BME280;13406;53.380;7.226;2023-11-18T08:50:45;103108.75;;;4.03;100.00
25498;BME280;13406;53.380;7.226;2023-11-18T08:53:12;103089.88;;;4.08;100.00
25498;BME280;13406;53.380;7.226;2023-11-18T08:55:37;103116.28;;;4.24;100.00
25498;BME280;13406;53.380;7.226;2023-11-18T08:58:21;103121.94;;;4.05;100.00
25498;BME280;13406;53.380;7.226;2023-11-18T09:00:55;103131.56;;;4.20;100.00
25498;BME280;13406;53.380;7.226;2023-11-18T09:03:24;103064.91;;;3.56;100.00
25498;BME280;13406;53.380;7.226;2023-11-18T09:05:58;103123.84;;;4.30;100.00
25498;BME280;13406;53.380;7.226;2023-11-18T09:08:38;103134.03;;;4.23;100.00
25498;BME280;13406;53.380;7.226;2023-11-18T09:11:05;103053.66;;;3.80;100.00
25498;BME280;13406;53.380;7.226;2023-11-18T09:13:31;103153.91;;;4.30;100.00
25498;BME280;13406;53.380;7.226;2023-11-18T09:16:01;103149.59;;;4.15;100.00
25498;BME280;13406;53.380;7.226;2023-11-18T09:18:34;103113.59;;;4.11;100.00
25498;BME280;13406;53.380;7.226;2023-11-18T09:21:03;103120.56;;;3.99;100.00
25498;BME280;13406;53.380;7.226;2023-11-18T09:23:30;103160.53;;;4.38;100.00
25498;BME280;13406;53.380;7.226;2023-11-18T09:25:57;103165.06;;;4.23;100.00
25498;BME280;13406;53.380;7.226;2023-11-18T09:28:24;103128.66;;;4.11;100.00
25498;BME280;13406;53.380;7.226;2023-11-18T09:30:50;103136.06;;;4.33;100.00
25498;BME280;13406;53.380;7.226;2023-11-18T09:33:21;103154.56;;;4.34;100.00
25498;BME280;13406;53.380;7.226;2023-11-18T09:36:06;103149.56;;;4.02;100.00
25498;BME280;13406;53.380;7.226;2023-11-18T09:38:38;103163.31;;;3.95;100.00
25498;BME280;13406;53.380;7.226;2023-11-18T09:41:10;103136.56;;;3.56;100.00
25498;BME280;13406;53.380;7.226;2023-11-18T09:43:40;103181.38;;;4.44;100.00
25498;BME280;13406;53.380;7.226;2023-11-18T09:46:24;103194.06;;;4.53;100.00
25498;BME280;13406;53.380;7.226;2023-11-18T09:48:52;103193.16;;;4.13;100.00
25498;BME280;13406;53.380;7.226;2023-11-18T09:51:25;103164.53;;;4.30;100.00
25498;BME280;13406;53.380;7.226;2023-11-18T09:53:59;103155.16;;;4.25;100.00
25498;BME280;13406;53.380;7.226;2023-11-18T09:59:17;103202.25;;;4.50;100.00
25498;BME280;13406;53.380;7.226;2023-11-18T10:01:50;103113.91;;;4.19;100.00
25498;BME280;13406;53.380;7.226;2023-11-18T10:04:20;103203.38;;;4.73;100.00
25498;BME280;13406;53.380;7.226;2023-11-18T10:06:49;103191.84;;;4.60;100.00
25498;BME280;13406;53.380;7.226;2023-11-18T10:09:17;103135.22;;;4.32;100.00
25498;BME280;13406;53.380;7.226;2023-11-18T10:11:50;103201.81;;;4.83;100.00
25498;BME280;13406;53.380;7.226;2023-11-18T10:14:16;103194.19;;;4.64;100.00
25498;BME280;13406;53.380;7.226;2023-11-18T10:16:43;103199.88;;;4.85;100.00
25498;BME280;13406;53.380;7.226;2023-11-18T10:19:12;103087.91;;;4.24;100.00
25498;BME280;13406;53.380;7.226;2023-11-18T10:21:37;103162.16;;;4.53;100.00
25498;BME280;13406;53.380;7.226;2023-11-18T10:24:07;103193.53;;;5.01;100.00
25498;BME280;13406;53.380;7.226;2023-11-18T10:26:45;103171.94;;;4.92;100.00
25498;BME280;13406;53.380;7.226;2023-11-18T10:29:11;103186.59;;;4.85;100.00
25498;BME280;13406;53.380;7.226;2023-11-18T10:31:39;103183.09;;;4.85;100.00
25498;BME280;13406;53.380;7.226;2023-11-18T10:34:12;103145.28;;;4.67;100.00
25498;BME280;13406;53.380;7.226;2023-11-18T10:36:37;103143.16;;;4.59;100.00
25498;BME280;13406;53.380;7.226;2023-11-18T10:39:04;103079.13;;;4.49;100.00
25498;BME280;13406;53.380;7.226;2023-11-18T10:41:42;103170.78;;;5.09;100.00
25498;BME280;13406;53.380;7.226;2023-11-18T10:44:09;103123.72;;;4.84;100.00
25498;BME280;13406;53.380;7.226;2023-11-18T10:46:53;103101.16;;;4.77;100.00
25498;BME280;13406;53.380;7.226;2023-11-18T10:49:20;103148.84;;;4.93;100.00
25498;BME280;13406;53.380;7.226;2023-11-18T10:51:46;103111.06;;;4.88;100.00
25498;BME280;13406;53.380;7.226;2023-11-18T10:54:12;103139.16;;;5.05;100.00
25498;BME280;13406;53.380;7.226;2023-11-18T10:56:52;103093.19;;;4.77;100.00
25498;BME280;13406;53.380;7.226;2023-11-18T10:59:23;103121.63;;;4.89;100.00
25498;BME280;13406;53.380;7.226;2023-11-18T11:01:50;103093.63;;;4.84;100.00
25498;BME280;13406;53.380;7.226;2023-11-18T11:04:16;103138.00;;;4.96;100.00
25498;BME280;13406;53.380;7.226;2023-11-18T11:06:49;103126.38;;;4.84;100.00
25498;BME280;13406;53.380;7.226;2023-11-18T11:09:19;103133.84;;;5.05;100.00
25498;BME280;13406;53.380;7.226;2023-11-18T11:14:20;103080.44;;;4.82;100.00
25498;BME280;13406;53.380;7.226;2023-11-18T11:16:50;103086.72;;;4.81;100.00
25498;BME280;13406;53.380;7.226;2023-11-18T11:19:38;103109.59;;;5.09;100.00
25498;BME280;13406;53.380;7.226;2023-11-18T11:22:15;103094.47;;;4.97;100.00
25498;BME280;13406;53.380;7.226;2023-11-18T11:27:54;103117.34;;;5.12;100.00
25498;BME280;13406;53.380;7.226;2023-11-18T11:30:44;103055.66;;;4.82;100.00
25498;BME280;13406;53.380;7.226;2023-11-18T11:35:49;103098.19;;;5.07;100.00
25498;BME280;13406;53.380;7.226;2023-11-18T11:38:18;103074.38;;;4.93;100.00
25498;BME280;13406;53.380;7.226;2023-11-18T11:40:44;103077.75;;;5.08;100.00
25498;BME280;13406;53.380;7.226;2023-11-18T11:43:11;103077.25;;;4.90;100.00
25498;BME280;13406;53.380;7.226;2023-11-18T11:45:41;103089.16;;;5.10;100.00
25498;BME280;13406;53.380;7.226;2023-11-18T11:48:08;102998.34;;;4.52;100.00
25498;BME280;13406;53.380;7.226;2023-11-18T11:50:48;103079.78;;;5.04;100.00
25498;BME280;13406;53.380;7.226;2023-11-18T11:53:22;103084.56;;;5.12;100.00
25498;BME280;13406;53.380;7.226;2023-11-18T11:55:53;103083.84;;;5.10;100.00
25498;BME280;13406;53.380;7.226;2023-11-18T11:58:29;103077.34;;;5.01;100.00
25498;BME280;13406;53.380;7.226;2023-11-18T12:01:01;102956.47;;;4.30;100.00
25498;BME280;13406;53.380;7.226;2023-11-18T12:03:33;103079.56;;;5.20;100.00
25498;BME280;13406;53.380;7.226;2023-11-18T12:06:01;103026.81;;;4.88;100.00
25498;BME280;13406;53.380;7.226;2023-11-18T12:08:35;103033.59;;;5.18;100.00
25498;BME280;13406;53.380;7.226;2023-11-18T12:11:02;103059.25;;;5.19;100.00
25498;BME280;13406;53.380;7.226;2023-11-18T12:13:28;103054.41;;;5.37;100.00
25498;BME280;13406;53.380;7.226;2023-11-18T12:15:57;103044.19;;;5.31;100.00
25498;BME280;13406;53.380;7.226;2023-11-18T12:18:23;103004.38;;;4.92;100.00
25498;BME280;13406;53.380;7.226;2023-11-18T12:20:50;103003.00;;;4.87;100.00
25498;BME280;13406;53.380;7.226;2023-11-18T12:23:27;103008.31;;;4.87;100.00
25498;BME280;13406;53.380;7.226;2023-11-18T12:25:54;103068.47;;;5.26;100.00
25498;BME280;13406;53.380;7.226;2023-11-18T12:28:40;103071.25;;;5.25;100.00
25498;BME280;13406;53.380;7.226;2023-11-18T12:31:10;103009.91;;;4.89;100.00
25498;BME280;13406;53.380;7.226;2023-11-18T12:34:00;103039.28;;;5.01;100.00
25498;BME280;13406;53.380;7.226;2023-11-18T12:42:07;103066.03;;;5.23;100.00
25498;BME280;13406;53.380;7.226;2023-11-18T12:47:20;103027.78;;;5.37;100.00
25498;BME280;13406;53.380;7.226;2023-11-18T12:49:53;102990.88;;;4.95;100.00
25498;BME280;13406;53.380;7.226;2023-11-18T12:52:22;102918.16;;;4.71;100.00
25498;BME280;13406;53.380;7.226;2023-11-18T12:54:48;102990.38;;;5.14;100.00
25498;BME280;13406;53.380;7.226;2023-11-18T12:57:19;102913.88;;;4.81;100.00
25498;BME280;13406;53.380;7.226;2023-11-18T12:59:48;102961.81;;;5.29;100.00
25498;BME280;13406;53.380;7.226;2023-11-18T13:02:15;102918.16;;;5.32;100.00
25498;BME280;13406;53.380;7.226;2023-11-18T13:04:48;102948.34;;;5.43;100.00
25498;BME280;13406;53.380;7.226;2023-11-18T13:07:17;102935.25;;;5.40;100.00
25498;BME280;13406;53.380;7.226;2023-11-18T13:09:43;102889.94;;;5.18;100.00
25498;BME280;13406;53.380;7.226;2023-11-18T13:12:11;102880.06;;;5.31;100.00
25498;BME280;13406;53.380;7.226;2023-11-18T13:14:41;102930.13;;;5.50;100.00
25498;BME280;13406;53.380;7.226;2023-11-18T13:17:12;102861.72;;;4.91;100.00
25498;BME280;13406;53.380;7.226;2023-11-18T13:19:39;102948.97;;;5.47;100.00
25498;BME280;13406;53.380;7.226;2023-11-18T13:22:07;102816.84;;;4.63;100.00